Главная страница
METAR-TAF:

METAR-TAF

Аэропорты :

Самсун, Турция

широта: 41-15-15N, долгота: 036-34-03E, высота над уровнем моря: 5 м

Текущие метеонаблюдения

Эта сводка был подготовлена 46 минут назад, в 18:50 UTC
Штиль
Температура 7°C
Влажность 87%
Давление 1023 hPa
Видимость 10 км и более
Нет облачности ниже 1500 м, и нет кучево-дождевой облачности

METAR: LTFH 261850Z 00000KT CAVOK 07/05 Q1023 NOSIG

Время: 22:36 (19:36 UTC)

Прогноз

Эта сводка был подготовлена 2 часа и 56 минут назад, в 16:40 UTC
Прогноз действительный с 26-го 18 UTC до 27-го 03 UTC
Ветер 2 Узел переменных направлений
Видимость 10 км и более
Нет облачности ниже 1500 м, и нет кучево-дождевой облачности
изменения
С 26-го 20 UTC до 26-го 21 UTC
Видимость: 2000 м
Отдельные облака на высоте 1000 фута
дымка

TAF: LTFH 261640Z 2618/2703 VRB02KT CAVOK BECMG 2620/2621 2000 BR SCT010

Метеонаблюдения и прогнозы для более 4000 аэропортов (сводки METAR и TAF).

Имеющиеся станции представлены на карте желтыми и красными точками.

Чтобы увидеть название станции, наведите на нее мышь.

Затем щелкните, чтобы увидеть метеонаблюдения и метеопрогнозы.

Управление картой: чтобы увеличить масштаб, щелкните зеленые кнопки с черным крестиком; чтобы уменьшить масштаб, щелкните зеленую кнопку с тире; для просмотра соседних карт щелкайте зеленые стрелки.


METAR-TAF: